sensor_id;sensor_type;location;lat;lon;timestamp;temperature;humidity
21355;DHT22;10835;50.148;19.760;2024-02-16T00:01:29;20.60;47.00
21355;DHT22;10835;50.148;19.760;2024-02-16T00:03:58;20.60;46.40
21355;DHT22;10835;50.148;19.760;2024-02-16T00:06:26;20.50;46.10
21355;DHT22;10835;50.148;19.760;2024-02-16T00:08:55;20.00;46.40
21355;DHT22;10835;50.148;19.760;2024-02-16T00:11:24;19.80;47.20
21355;DHT22;10835;50.148;19.760;2024-02-16T00:13:52;20.20;47.20
21355;DHT22;10835;50.148;19.760;2024-02-16T00:16:21;20.50;46.80
21355;DHT22;10835;50.148;19.760;2024-02-16T00:18:50;20.50;46.60
21355;DHT22;10835;50.148;19.760;2024-02-16T00:21:19;19.90;46.50
21355;DHT22;10835;50.148;19.760;2024-02-16T00:23:48;20.10;47.20
21355;DHT22;10835;50.148;19.760;2024-02-16T00:26:16;20.50;46.40
21355;DHT22;10835;50.148;19.760;2024-02-16T00:28:45;20.70;45.30
21355;DHT22;10835;50.148;19.760;2024-02-16T00:31:14;20.80;45.10
21355;DHT22;10835;50.148;19.760;2024-02-16T00:33:42;20.80;45.60
21355;DHT22;10835;50.148;19.760;2024-02-16T00:36:12;21.20;45.50
21355;DHT22;10835;50.148;19.760;2024-02-16T00:38:41;21.10;45.00
21355;DHT22;10835;50.148;19.760;2024-02-16T00:41:18;21.30;44.50
21355;DHT22;10835;50.148;19.760;2024-02-16T00:43:47;21.10;44.10
21355;DHT22;10835;50.148;19.760;2024-02-16T00:46:16;21.30;43.70
21355;DHT22;10835;50.148;19.760;2024-02-16T00:48:44;21.00;44.50
21355;DHT22;10835;50.148;19.760;2024-02-16T00:51:15;20.50;44.60
21355;DHT22;10835;50.148;19.760;2024-02-16T00:53:44;20.00;45.30
21355;DHT22;10835;50.148;19.760;2024-02-16T00:56:12;20.10;45.90
21355;DHT22;10835;50.148;19.760;2024-02-16T00:58:41;20.20;45.50
21355;DHT22;10835;50.148;19.760;2024-02-16T01:01:10;20.00;45.60
21355;DHT22;10835;50.148;19.760;2024-02-16T01:03:39;19.60;46.00
21355;DHT22;10835;50.148;19.760;2024-02-16T01:06:08;19.50;46.20
21355;DHT22;10835;50.148;19.760;2024-02-16T01:08:39;20.20;47.70
21355;DHT22;10835;50.148;19.760;2024-02-16T01:11:07;19.40;46.30
21355;DHT22;10835;50.148;19.760;2024-02-16T01:13:36;20.00;48.10
21355;DHT22;10835;50.148;19.760;2024-02-16T01:16:05;20.10;46.40
21355;DHT22;10835;50.148;19.760;2024-02-16T01:18:33;20.10;46.90
21355;DHT22;10835;50.148;19.760;2024-02-16T01:21:04;19.60;46.40
21355;DHT22;10835;50.148;19.760;2024-02-16T01:23:32;19.60;47.10
21355;DHT22;10835;50.148;19.760;2024-02-16T01:26:02;19.90;47.20
21355;DHT22;10835;50.148;19.760;2024-02-16T01:28:31;19.70;47.00
21355;DHT22;10835;50.148;19.760;2024-02-16T01:30:59;19.90;47.50
21355;DHT22;10835;50.148;19.760;2024-02-16T01:33:28;20.20;46.80
21355;DHT22;10835;50.148;19.760;2024-02-16T01:35:57;19.80;46.90
21355;DHT22;10835;50.148;19.760;2024-02-16T01:38:26;19.80;47.00
21355;DHT22;10835;50.148;19.760;2024-02-16T01:40:54;19.40;46.80
21355;DHT22;10835;50.148;19.760;2024-02-16T01:43:24;19.30;47.30
21355;DHT22;10835;50.148;19.760;2024-02-16T01:45:53;19.90;46.40
21355;DHT22;10835;50.148;19.760;2024-02-16T01:48:23;19.40;46.60
21355;DHT22;10835;50.148;19.760;2024-02-16T01:50:53;19.80;46.10
21355;DHT22;10835;50.148;19.760;2024-02-16T01:53:22;20.00;45.80
21355;DHT22;10835;50.148;19.760;2024-02-16T01:55:51;20.30;45.00
21355;DHT22;10835;50.148;19.760;2024-02-16T01:58:20;20.50;45.20
21355;DHT22;10835;50.148;19.760;2024-02-16T02:00:50;20.40;44.80
21355;DHT22;10835;50.148;19.760;2024-02-16T02:03:18;20.40;46.00
21355;DHT22;10835;50.148;19.760;2024-02-16T02:05:47;20.50;44.60
21355;DHT22;10835;50.148;19.760;2024-02-16T02:08:17;20.80;45.10
21355;DHT22;10835;50.148;19.760;2024-02-16T02:10:45;20.20;44.40
21355;DHT22;10835;50.148;19.760;2024-02-16T02:13:14;20.70;45.00
21355;DHT22;10835;50.148;19.760;2024-02-16T02:15:43;20.70;43.80
21355;DHT22;10835;50.148;19.760;2024-02-16T02:18:13;20.70;43.60
21355;DHT22;10835;50.148;19.760;2024-02-16T02:20:42;21.00;44.10
21355;DHT22;10835;50.148;19.760;2024-02-16T02:23:12;20.90;43.00
21355;DHT22;10835;50.148;19.760;2024-02-16T02:25:40;20.60;43.70
21355;DHT22;10835;50.148;19.760;2024-02-16T02:28:09;20.20;44.30
21355;DHT22;10835;50.148;19.760;2024-02-16T02:30:37;20.00;44.90
21355;DHT22;10835;50.148;19.760;2024-02-16T02:33:06;19.80;45.20
21355;DHT22;10835;50.148;19.760;2024-02-16T02:35:36;19.80;45.50
21355;DHT22;10835;50.148;19.760;2024-02-16T02:38:05;19.50;45.90
21355;DHT22;10835;50.148;19.760;2024-02-16T02:40:35;19.70;46.00
21355;DHT22;10835;50.148;19.760;2024-02-16T02:43:04;19.80;45.60
21355;DHT22;10835;50.148;19.760;2024-02-16T02:45:33;20.00;45.10
21355;DHT22;10835;50.148;19.760;2024-02-16T02:48:02;19.70;45.30
21355;DHT22;10835;50.148;19.760;2024-02-16T02:50:31;19.90;45.60
21355;DHT22;10835;50.148;19.760;2024-02-16T02:52:59;19.90;45.60
21355;DHT22;10835;50.148;19.760;2024-02-16T02:55:28;20.20;44.80
21355;DHT22;10835;50.148;19.760;2024-02-16T02:57:57;20.50;44.20
21355;DHT22;10835;50.148;19.760;2024-02-16T03:00:26;20.30;44.10
21355;DHT22;10835;50.148;19.760;2024-02-16T03:02:54;20.10;44.60
21355;DHT22;10835;50.148;19.760;2024-02-16T03:05:24;20.30;45.40
21355;DHT22;10835;50.148;19.760;2024-02-16T03:07:53;20.50;43.80
21355;DHT22;10835;50.148;19.760;2024-02-16T03:10:21;20.50;43.90
21355;DHT22;10835;50.148;19.760;2024-02-16T03:12:51;20.60;43.40
21355;DHT22;10835;50.148;19.760;2024-02-16T03:15:21;20.70;43.50
21355;DHT22;10835;50.148;19.760;2024-02-16T03:17:49;20.30;43.80
21355;DHT22;10835;50.148;19.760;2024-02-16T03:20:18;20.00;44.60
21355;DHT22;10835;50.148;19.760;2024-02-16T03:22:48;20.30;43.80
21355;DHT22;10835;50.148;19.760;2024-02-16T03:25:17;20.40;43.60
21355;DHT22;10835;50.148;19.760;2024-02-16T03:27:45;20.40;43.70
21355;DHT22;10835;50.148;19.760;2024-02-16T03:30:14;20.70;43.00
21355;DHT22;10835;50.148;19.760;2024-02-16T03:32:47;20.30;43.50
21355;DHT22;10835;50.148;19.760;2024-02-16T03:35:16;19.80;44.60
21355;DHT22;10835;50.148;19.760;2024-02-16T03:37:45;19.70;45.00
21355;DHT22;10835;50.148;19.760;2024-02-16T03:40:13;19.90;44.60
21355;DHT22;10835;50.148;19.760;2024-02-16T03:42:42;20.20;44.00
21355;DHT22;10835;50.148;19.760;2024-02-16T03:45:11;20.30;44.10
21355;DHT22;10835;50.148;19.760;2024-02-16T03:47:40;20.20;44.00
21355;DHT22;10835;50.148;19.760;2024-02-16T03:50:10;20.30;43.80
21355;DHT22;10835;50.148;19.760;2024-02-16T03:52:41;20.50;43.10
21355;DHT22;10835;50.148;19.760;2024-02-16T03:55:10;20.40;42.90
21355;DHT22;10835;50.148;19.760;2024-02-16T03:57:40;20.50;43.20
21355;DHT22;10835;50.148;19.760;2024-02-16T04:00:09;20.50;42.70
21355;DHT22;10835;50.148;19.760;2024-02-16T04:02:40;20.60;42.60
21355;DHT22;10835;50.148;19.760;2024-02-16T04:05:10;20.50;42.70
21355;DHT22;10835;50.148;19.760;2024-02-16T04:07:39;20.50;42.40
21355;DHT22;10835;50.148;19.760;2024-02-16T04:10:08;20.20;43.50
21355;DHT22;10835;50.148;19.760;2024-02-16T04:12:37;19.90;43.90
21355;DHT22;10835;50.148;19.760;2024-02-16T04:15:06;20.00;44.20
21355;DHT22;10835;50.148;19.760;2024-02-16T04:17:34;19.80;43.90
21355;DHT22;10835;50.148;19.760;2024-02-16T04:20:04;19.90;44.10
21355;DHT22;10835;50.148;19.760;2024-02-16T04:22:33;20.00;43.70
21355;DHT22;10835;50.148;19.760;2024-02-16T04:25:05;20.10;43.90
21355;DHT22;10835;50.148;19.760;2024-02-16T04:27:33;19.60;44.10
21355;DHT22;10835;50.148;19.760;2024-02-16T04:30:03;19.40;44.90
21355;DHT22;10835;50.148;19.760;2024-02-16T04:32:32;19.20;45.40
21355;DHT22;10835;50.148;19.760;2024-02-16T04:35:00;19.30;45.00
21355;DHT22;10835;50.148;19.760;2024-02-16T04:37:30;19.20;45.90
21355;DHT22;10835;50.148;19.760;2024-02-16T04:40:00;18.70;46.00
21355;DHT22;10835;50.148;19.760;2024-02-16T04:42:28;19.20;45.80
21355;DHT22;10835;50.148;19.760;2024-02-16T04:44:57;18.80;45.70
21355;DHT22;10835;50.148;19.760;2024-02-16T04:47:29;19.20;46.80
21355;DHT22;10835;50.148;19.760;2024-02-16T04:49:58;18.90;45.70
21355;DHT22;10835;50.148;19.760;2024-02-16T04:52:26;18.70;47.40
21355;DHT22;10835;50.148;19.760;2024-02-16T04:54:57;18.80;46.60
21355;DHT22;10835;50.148;19.760;2024-02-16T04:57:27;18.80;47.40
21355;DHT22;10835;50.148;19.760;2024-02-16T04:59:55;19.40;46.10
21355;DHT22;10835;50.148;19.760;2024-02-16T05:02:24;19.80;45.00
21355;DHT22;10835;50.148;19.760;2024-02-16T05:04:52;20.10;44.50
21355;DHT22;10835;50.148;19.760;2024-02-16T05:07:21;20.40;43.30
21355;DHT22;10835;50.148;19.760;2024-02-16T05:09:50;20.30;43.80
21355;DHT22;10835;50.148;19.760;2024-02-16T05:12:23;20.20;44.30
21355;DHT22;10835;50.148;19.760;2024-02-16T05:14:53;20.40;43.30
21355;DHT22;10835;50.148;19.760;2024-02-16T05:17:21;20.20;43.30
21355;DHT22;10835;50.148;19.760;2024-02-16T05:19:51;20.10;46.10
21355;DHT22;10835;50.148;19.760;2024-02-16T05:22:21;20.30;45.10
21355;DHT22;10835;50.148;19.760;2024-02-16T05:24:49;19.90;44.60
21355;DHT22;10835;50.148;19.760;2024-02-16T05:27:18;19.10;45.20
21355;DHT22;10835;50.148;19.760;2024-02-16T05:29:47;19.10;46.00
21355;DHT22;10835;50.148;19.760;2024-02-16T05:32:17;19.30;45.70
21355;DHT22;10835;50.148;19.760;2024-02-16T05:34:45;19.60;45.00
21355;DHT22;10835;50.148;19.760;2024-02-16T05:37:14;19.50;44.90
21355;DHT22;10835;50.148;19.760;2024-02-16T05:39:42;18.30;46.10
21355;DHT22;10835;50.148;19.760;2024-02-16T05:42:21;18.60;47.40
21355;DHT22;10835;50.148;19.760;2024-02-16T05:44:50;19.20;45.80
21355;DHT22;10835;50.148;19.760;2024-02-16T05:47:21;19.70;44.80
21355;DHT22;10835;50.148;19.760;2024-02-16T05:49:50;19.90;44.00
21355;DHT22;10835;50.148;19.760;2024-02-16T05:52:19;19.80;44.30
21355;DHT22;10835;50.148;19.760;2024-02-16T05:54:48;19.50;44.90
21355;DHT22;10835;50.148;19.760;2024-02-16T05:57:17;19.50;45.30
21355;DHT22;10835;50.148;19.760;2024-02-16T05:59:46;19.40;45.70
21355;DHT22;10835;50.148;19.760;2024-02-16T06:02:17;18.60;45.80
21355;DHT22;10835;50.148;19.760;2024-02-16T06:04:47;18.80;46.80
21355;DHT22;10835;50.148;19.760;2024-02-16T06:07:15;18.80;46.40
21355;DHT22;10835;50.148;19.760;2024-02-16T06:09:44;18.90;46.40
21355;DHT22;10835;50.148;19.760;2024-02-16T06:12:13;19.40;45.30
21355;DHT22;10835;50.148;19.760;2024-02-16T06:14:43;18.70;45.60
21355;DHT22;10835;50.148;19.760;2024-02-16T06:17:11;19.10;47.00
21355;DHT22;10835;50.148;19.760;2024-02-16T06:19:41;19.00;46.70
21355;DHT22;10835;50.148;19.760;2024-02-16T06:22:12;19.70;46.50
21355;DHT22;10835;50.148;19.760;2024-02-16T06:24:40;20.10;45.80
21355;DHT22;10835;50.148;19.760;2024-02-16T06:27:09;20.40;45.00
21355;DHT22;10835;50.148;19.760;2024-02-16T06:29:37;20.60;44.60
21355;DHT22;10835;50.148;19.760;2024-02-16T06:32:06;20.80;44.40
21355;DHT22;10835;50.148;19.760;2024-02-16T06:34:35;20.90;44.10
21355;DHT22;10835;50.148;19.760;2024-02-16T06:37:04;20.90;44.70
21355;DHT22;10835;50.148;19.760;2024-02-16T06:39:34;20.90;44.40
21355;DHT22;10835;50.148;19.760;2024-02-16T06:42:04;21.20;44.40
21355;DHT22;10835;50.148;19.760;2024-02-16T06:44:32;21.40;43.80
21355;DHT22;10835;50.148;19.760;2024-02-16T06:47:01;21.60;43.50
21355;DHT22;10835;50.148;19.760;2024-02-16T06:49:30;21.80;43.50
21355;DHT22;10835;50.148;19.760;2024-02-16T06:51:58;21.90;43.20
21355;DHT22;10835;50.148;19.760;2024-02-16T06:54:27;22.00;43.20
21355;DHT22;10835;50.148;19.760;2024-02-16T06:56:57;22.20;43.00
21355;DHT22;10835;50.148;19.760;2024-02-16T06:59:26;22.30;42.90
21355;DHT22;10835;50.148;19.760;2024-02-16T07:01:54;22.40;42.80
21355;DHT22;10835;50.148;19.760;2024-02-16T07:04:23;22.20;43.10
21355;DHT22;10835;50.148;19.760;2024-02-16T07:06:51;21.90;43.80
21355;DHT22;10835;50.148;19.760;2024-02-16T07:09:20;21.80;44.60
21355;DHT22;10835;50.148;19.760;2024-02-16T07:11:49;22.00;44.90
21355;DHT22;10835;50.148;19.760;2024-02-16T07:14:22;22.00;45.00
21355;DHT22;10835;50.148;19.760;2024-02-16T07:16:50;22.00;45.00
21355;DHT22;10835;50.148;19.760;2024-02-16T07:19:19;22.20;44.80
21355;DHT22;10835;50.148;19.760;2024-02-16T07:21:48;22.50;45.20
21355;DHT22;10835;50.148;19.760;2024-02-16T07:24:17;22.70;44.40
21355;DHT22;10835;50.148;19.760;2024-02-16T07:26:46;22.80;44.10
21355;DHT22;10835;50.148;19.760;2024-02-16T07:29:16;22.80;44.50
21355;DHT22;10835;50.148;19.760;2024-02-16T07:31:46;23.00;44.70
21355;DHT22;10835;50.148;19.760;2024-02-16T07:34:14;23.20;44.60
21355;DHT22;10835;50.148;19.760;2024-02-16T07:36:43;23.40;44.40
21355;DHT22;10835;50.148;19.760;2024-02-16T07:39:11;23.50;43.90
21355;DHT22;10835;50.148;19.760;2024-02-16T07:41:40;23.60;44.20
21355;DHT22;10835;50.148;19.760;2024-02-16T07:44:08;23.80;43.30
21355;DHT22;10835;50.148;19.760;2024-02-16T07:46:40;23.90;43.30
21355;DHT22;10835;50.148;19.760;2024-02-16T07:49:10;23.90;43.40
21355;DHT22;10835;50.148;19.760;2024-02-16T07:51:40;24.10;42.80
21355;DHT22;10835;50.148;19.760;2024-02-16T07:54:08;24.10;42.50
21355;DHT22;10835;50.148;19.760;2024-02-16T07:56:37;24.00;42.30
21355;DHT22;10835;50.148;19.760;2024-02-16T07:59:05;24.10;42.30
21355;DHT22;10835;50.148;19.760;2024-02-16T08:01:34;24.30;42.30
21355;DHT22;10835;50.148;19.760;2024-02-16T08:04:02;24.40;42.10
21355;DHT22;10835;50.148;19.760;2024-02-16T08:06:34;24.60;41.80
21355;DHT22;10835;50.148;19.760;2024-02-16T08:09:03;24.70;41.70
21355;DHT22;10835;50.148;19.760;2024-02-16T08:11:33;24.80;41.80
21355;DHT22;10835;50.148;19.760;2024-02-16T08:14:02;24.80;41.70
21355;DHT22;10835;50.148;19.760;2024-02-16T08:16:31;24.80;41.70
21355;DHT22;10835;50.148;19.760;2024-02-16T08:18:59;24.70;41.90
21355;DHT22;10835;50.148;19.760;2024-02-16T08:21:28;24.90;42.50
21355;DHT22;10835;50.148;19.760;2024-02-16T08:23:58;25.00;42.20
21355;DHT22;10835;50.148;19.760;2024-02-16T08:26:27;25.10;42.30
21355;DHT22;10835;50.148;19.760;2024-02-16T08:28:55;25.20;42.10
21355;DHT22;10835;50.148;19.760;2024-02-16T08:31:23;25.30;41.60
21355;DHT22;10835;50.148;19.760;2024-02-16T08:33:52;25.20;41.90
21355;DHT22;10835;50.148;19.760;2024-02-16T08:36:21;25.50;41.70
21355;DHT22;10835;50.148;19.760;2024-02-16T08:38:55;25.40;41.00
21355;DHT22;10835;50.148;19.760;2024-02-16T08:41:25;25.50;41.40
21355;DHT22;10835;50.148;19.760;2024-02-16T08:43:53;25.50;41.70
21355;DHT22;10835;50.148;19.760;2024-02-16T08:46:24;25.60;41.30
21355;DHT22;10835;50.148;19.760;2024-02-16T08:48:52;25.60;40.70
21355;DHT22;10835;50.148;19.760;2024-02-16T08:51:21;25.50;41.20
21355;DHT22;10835;50.148;19.760;2024-02-16T08:53:50;24.80;41.90
21355;DHT22;10835;50.148;19.760;2024-02-16T08:56:18;24.90;42.40
21355;DHT22;10835;50.148;19.760;2024-02-16T08:58:48;25.30;42.90
21355;DHT22;10835;50.148;19.760;2024-02-16T09:01:17;25.50;41.30
21355;DHT22;10835;50.148;19.760;2024-02-16T09:03:46;25.60;41.10
21355;DHT22;10835;50.148;19.760;2024-02-16T09:06:15;25.60;41.00
21355;DHT22;10835;50.148;19.760;2024-02-16T09:08:45;25.40;40.70
21355;DHT22;10835;50.148;19.760;2024-02-16T09:11:13;25.10;41.10
21355;DHT22;10835;50.148;19.760;2024-02-16T09:13:42;25.30;41.70
21355;DHT22;10835;50.148;19.760;2024-02-16T09:16:12;25.30;41.90
21355;DHT22;10835;50.148;19.760;2024-02-16T09:18:40;24.80;42.30
21355;DHT22;10835;50.148;19.760;2024-02-16T09:21:09;25.40;42.20
21355;DHT22;10835;50.148;19.760;2024-02-16T09:23:37;25.70;42.10
21355;DHT22;10835;50.148;19.760;2024-02-16T09:26:06;25.80;42.10
21355;DHT22;10835;50.148;19.760;2024-02-16T09:28:40;26.10;41.90
21355;DHT22;10835;50.148;19.760;2024-02-16T09:31:09;26.20;41.80
21355;DHT22;10835;50.148;19.760;2024-02-16T09:33:39;26.40;41.50
21355;DHT22;10835;50.148;19.760;2024-02-16T09:36:08;26.40;41.30
21355;DHT22;10835;50.148;19.760;2024-02-16T09:38:37;26.50;41.80
21355;DHT22;10835;50.148;19.760;2024-02-16T09:41:05;25.70;42.00
21355;DHT22;10835;50.148;19.760;2024-02-16T09:43:34;26.10;41.50
21355;DHT22;10835;50.148;19.760;2024-02-16T09:46:03;25.90;41.30
21355;DHT22;10835;50.148;19.760;2024-02-16T09:48:32;26.00;42.20
21355;DHT22;10835;50.148;19.760;2024-02-16T09:51:02;26.00;41.80
21355;DHT22;10835;50.148;19.760;2024-02-16T09:53:32;26.10;41.40
21355;DHT22;10835;50.148;19.760;2024-02-16T09:56:00;26.50;42.10
21355;DHT22;10835;50.148;19.760;2024-02-16T09:58:30;26.60;40.80
21355;DHT22;10835;50.148;19.760;2024-02-16T10:00:58;26.90;40.20
21355;DHT22;10835;50.148;19.760;2024-02-16T10:03:28;26.90;39.90
21355;DHT22;10835;50.148;19.760;2024-02-16T10:06:09;26.60;40.40
21355;DHT22;10835;50.148;19.760;2024-02-16T10:08:48;26.80;40.50
21355;DHT22;10835;50.148;19.760;2024-02-16T10:11:18;27.10;40.30
21355;DHT22;10835;50.148;19.760;2024-02-16T10:13:57;27.20;39.40
21355;DHT22;10835;50.148;19.760;2024-02-16T10:16:26;27.30;39.60
21355;DHT22;10835;50.148;19.760;2024-02-16T10:18:57;27.50;39.50
21355;DHT22;10835;50.148;19.760;2024-02-16T10:21:33;27.40;38.80
21355;DHT22;10835;50.148;19.760;2024-02-16T10:24:05;27.20;38.80
21355;DHT22;10835;50.148;19.760;2024-02-16T10:26:35;27.10;39.30
21355;DHT22;10835;50.148;19.760;2024-02-16T10:29:07;26.90;39.50
21355;DHT22;10835;50.148;19.760;2024-02-16T10:31:37;26.90;39.70
21355;DHT22;10835;50.148;19.760;2024-02-16T10:34:06;27.10;39.40
21355;DHT22;10835;50.148;19.760;2024-02-16T10:36:39;27.20;38.90
21355;DHT22;10835;50.148;19.760;2024-02-16T10:39:09;27.10;38.80
21355;DHT22;10835;50.148;19.760;2024-02-16T10:41:41;27.40;39.70
21355;DHT22;10835;50.148;19.760;2024-02-16T10:44:10;27.40;38.70
21355;DHT22;10835;50.148;19.760;2024-02-16T10:46:38;27.50;39.00
21355;DHT22;10835;50.148;19.760;2024-02-16T10:49:07;27.70;38.50
21355;DHT22;10835;50.148;19.760;2024-02-16T10:51:40;27.90;38.00
21355;DHT22;10835;50.148;19.760;2024-02-16T10:54:11;27.80;38.50
21355;DHT22;10835;50.148;19.760;2024-02-16T10:56:42;27.90;39.60
21355;DHT22;10835;50.148;19.760;2024-02-16T10:59:10;28.10;38.80
21355;DHT22;10835;50.148;19.760;2024-02-16T11:01:40;27.70;38.70
21355;DHT22;10835;50.148;19.760;2024-02-16T11:04:11;27.80;38.80
21355;DHT22;10835;50.148;19.760;2024-02-16T11:06:48;27.80;39.10
21355;DHT22;10835;50.148;19.760;2024-02-16T11:09:26;28.10;39.00
21355;DHT22;10835;50.148;19.760;2024-02-16T11:11:58;28.10;38.80
21355;DHT22;10835;50.148;19.760;2024-02-16T11:14:34;28.10;38.30
21355;DHT22;10835;50.148;19.760;2024-02-16T11:17:07;28.20;39.30
21355;DHT22;10835;50.148;19.760;2024-02-16T11:19:36;28.40;38.30
21355;DHT22;10835;50.148;19.760;2024-02-16T11:22:07;28.50;37.80
21355;DHT22;10835;50.148;19.760;2024-02-16T11:24:36;28.40;38.10
21355;DHT22;10835;50.148;19.760;2024-02-16T11:27:07;28.60;37.50
21355;DHT22;10835;50.148;19.760;2024-02-16T11:29:36;28.50;36.60
21355;DHT22;10835;50.148;19.760;2024-02-16T11:32:06;28.60;37.20
21355;DHT22;10835;50.148;19.760;2024-02-16T11:34:35;27.90;37.70
21355;DHT22;10835;50.148;19.760;2024-02-16T11:37:06;28.30;37.60
21355;DHT22;10835;50.148;19.760;2024-02-16T11:39:35;28.20;37.90
21355;DHT22;10835;50.148;19.760;2024-02-16T11:42:07;28.60;37.50
21355;DHT22;10835;50.148;19.760;2024-02-16T11:44:39;28.70;36.80
21355;DHT22;10835;50.148;19.760;2024-02-16T11:47:09;28.90;37.00
21355;DHT22;10835;50.148;19.760;2024-02-16T11:49:42;28.90;36.10
21355;DHT22;10835;50.148;19.760;2024-02-16T11:52:12;29.00;35.50
21355;DHT22;10835;50.148;19.760;2024-02-16T11:54:44;29.10;36.00
21355;DHT22;10835;50.148;19.760;2024-02-16T11:57:12;29.30;36.40
21355;DHT22;10835;50.148;19.760;2024-02-16T11:59:41;29.30;35.50
21355;DHT22;10835;50.148;19.760;2024-02-16T12:02:17;29.40;35.40
21355;DHT22;10835;50.148;19.760;2024-02-16T12:04:48;29.40;35.30
21355;DHT22;10835;50.148;19.760;2024-02-16T12:07:31;29.50;36.10
21355;DHT22;10835;50.148;19.760;2024-02-16T12:10:02;29.20;35.80
21355;DHT22;10835;50.148;19.760;2024-02-16T12:12:32;29.00;35.50
21355;DHT22;10835;50.148;19.760;2024-02-16T12:15:05;29.10;36.40
21355;DHT22;10835;50.148;19.760;2024-02-16T12:17:35;29.00;36.40
21355;DHT22;10835;50.148;19.760;2024-02-16T12:20:11;29.00;36.10
21355;DHT22;10835;50.148;19.760;2024-02-16T12:22:42;28.70;36.40
21355;DHT22;10835;50.148;19.760;2024-02-16T12:25:10;28.80;36.10
21355;DHT22;10835;50.148;19.760;2024-02-16T12:27:39;29.00;35.80
21355;DHT22;10835;50.148;19.760;2024-02-16T12:30:09;28.90;35.60
21355;DHT22;10835;50.148;19.760;2024-02-16T12:32:38;29.20;35.30
21355;DHT22;10835;50.148;19.760;2024-02-16T12:35:08;29.40;35.80
21355;DHT22;10835;50.148;19.760;2024-02-16T12:37:36;29.30;35.60
21355;DHT22;10835;50.148;19.760;2024-02-16T12:40:08;29.40;35.20
21355;DHT22;10835;50.148;19.760;2024-02-16T12:42:37;28.70;35.90
21355;DHT22;10835;50.148;19.760;2024-02-16T12:45:06;28.70;36.10
21355;DHT22;10835;50.148;19.760;2024-02-16T12:47:35;28.80;35.50
21355;DHT22;10835;50.148;19.760;2024-02-16T12:50:05;28.70;35.60
21355;DHT22;10835;50.148;19.760;2024-02-16T12:52:33;28.60;36.00
21355;DHT22;10835;50.148;19.760;2024-02-16T12:55:18;28.60;36.40
21355;DHT22;10835;50.148;19.760;2024-02-16T12:57:47;29.20;35.90
21355;DHT22;10835;50.148;19.760;2024-02-16T13:00:17;29.40;36.20
21355;DHT22;10835;50.148;19.760;2024-02-16T13:02:46;29.00;35.90
21355;DHT22;10835;50.148;19.760;2024-02-16T13:05:15;29.40;35.80
21355;DHT22;10835;50.148;19.760;2024-02-16T13:07:43;28.90;35.50
21355;DHT22;10835;50.148;19.760;2024-02-16T13:10:13;29.00;36.30
21355;DHT22;10835;50.148;19.760;2024-02-16T13:12:43;29.20;35.40
21355;DHT22;10835;50.148;19.760;2024-02-16T13:15:11;29.10;36.00
21355;DHT22;10835;50.148;19.760;2024-02-16T13:17:54;29.60;35.40
21355;DHT22;10835;50.148;19.760;2024-02-16T13:20:24;30.10;35.60
21355;DHT22;10835;50.148;19.760;2024-02-16T13:22:53;30.30;35.30
21355;DHT22;10835;50.148;19.760;2024-02-16T13:25:21;29.50;34.80
21355;DHT22;10835;50.148;19.760;2024-02-16T13:27:51;29.70;35.30
21355;DHT22;10835;50.148;19.760;2024-02-16T13:30:19;29.70;34.60
21355;DHT22;10835;50.148;19.760;2024-02-16T13:32:48;29.10;35.10
21355;DHT22;10835;50.148;19.760;2024-02-16T13:35:16;29.00;35.60
21355;DHT22;10835;50.148;19.760;2024-02-16T13:37:48;28.80;36.60
21355;DHT22;10835;50.148;19.760;2024-02-16T13:40:16;29.10;36.50
21355;DHT22;10835;50.148;19.760;2024-02-16T13:42:45;29.50;35.50
21355;DHT22;10835;50.148;19.760;2024-02-16T13:45:16;29.60;35.50
21355;DHT22;10835;50.148;19.760;2024-02-16T13:47:45;28.60;35.40
21355;DHT22;10835;50.148;19.760;2024-02-16T13:50:13;29.30;35.70
21355;DHT22;10835;50.148;19.760;2024-02-16T13:52:42;29.70;36.00
21355;DHT22;10835;50.148;19.760;2024-02-16T13:55:11;29.80;35.50
21355;DHT22;10835;50.148;19.760;2024-02-16T13:57:39;29.70;34.80
21355;DHT22;10835;50.148;19.760;2024-02-16T14:00:08;29.80;35.20
21355;DHT22;10835;50.148;19.760;2024-02-16T14:02:42;29.70;36.00
21355;DHT22;10835;50.148;19.760;2024-02-16T14:05:11;29.60;35.70
21355;DHT22;10835;50.148;19.760;2024-02-16T14:07:40;29.80;36.40
21355;DHT22;10835;50.148;19.760;2024-02-16T14:10:20;29.80;36.30
21355;DHT22;10835;50.148;19.760;2024-02-16T14:12:49;29.70;36.00
21355;DHT22;10835;50.148;19.760;2024-02-16T14:15:17;29.70;36.40
21355;DHT22;10835;50.148;19.760;2024-02-16T14:17:47;29.60;36.10
21355;DHT22;10835;50.148;19.760;2024-02-16T14:20:16;29.50;36.30
21355;DHT22;10835;50.148;19.760;2024-02-16T14:22:44;29.60;37.00
21355;DHT22;10835;50.148;19.760;2024-02-16T14:25:13;29.40;37.20
21355;DHT22;10835;50.148;19.760;2024-02-16T14:27:42;29.50;36.90
21355;DHT22;10835;50.148;19.760;2024-02-16T14:30:12;29.60;36.80
21355;DHT22;10835;50.148;19.760;2024-02-16T14:32:41;29.50;37.00
21355;DHT22;10835;50.148;19.760;2024-02-16T14:35:11;29.50;37.30
21355;DHT22;10835;50.148;19.760;2024-02-16T14:37:39;29.60;37.50
21355;DHT22;10835;50.148;19.760;2024-02-16T14:40:08;29.60;37.80
21355;DHT22;10835;50.148;19.760;2024-02-16T14:42:39;29.80;37.80
21355;DHT22;10835;50.148;19.760;2024-02-16T14:45:08;29.80;37.40
21355;DHT22;10835;50.148;19.760;2024-02-16T14:47:47;29.80;37.40
21355;DHT22;10835;50.148;19.760;2024-02-16T14:50:17;29.80;37.40
21355;DHT22;10835;50.148;19.760;2024-02-16T14:52:46;29.90;37.40
21355;DHT22;10835;50.148;19.760;2024-02-16T14:55:14;29.90;37.00
21355;DHT22;10835;50.148;19.760;2024-02-16T14:57:43;29.70;37.20
21355;DHT22;10835;50.148;19.760;2024-02-16T15:00:13;29.70;37.40
21355;DHT22;10835;50.148;19.760;2024-02-16T15:02:42;29.60;37.40
21355;DHT22;10835;50.148;19.760;2024-02-16T15:05:10;29.40;37.40
21355;DHT22;10835;50.148;19.760;2024-02-16T15:07:41;29.30;37.70
21355;DHT22;10835;50.148;19.760;2024-02-16T15:10:10;29.40;37.70
21355;DHT22;10835;50.148;19.760;2024-02-16T15:12:39;29.40;37.90
21355;DHT22;10835;50.148;19.760;2024-02-16T15:15:10;29.30;37.80
21355;DHT22;10835;50.148;19.760;2024-02-16T15:17:40;29.30;38.20
21355;DHT22;10835;50.148;19.760;2024-02-16T15:20:09;29.40;38.30
21355;DHT22;10835;50.148;19.760;2024-02-16T15:22:38;29.30;38.00
21355;DHT22;10835;50.148;19.760;2024-02-16T15:25:21;29.30;38.00
21355;DHT22;10835;50.148;19.760;2024-02-16T15:27:49;29.30;38.00
21355;DHT22;10835;50.148;19.760;2024-02-16T15:30:19;29.30;38.10